Time;durP1;ratioP1;P1;durP2;ratioP2;P2;SDS_P1;SDS_P2;PMS_P1;PMS_P2;Temp;Humidity;BMP_temperature;BMP_pressure;BME280_temperature;BME280_humidity;BME280_pressure;Samples;Min_cycle;Max_cycle;Signal;HPM_P1;HPM_P2
2022/11/17 07:31:09;;;;;;;4.18;1.17;;;11.80;99.90;;;;;;12078621;23;20056;-78
2022/11/17 07:36:14;;;;;;;4.25;1.30;;;11.80;99.90;;;;;;10134606;29;20109;-79
2022/11/17 07:41:15;;;;;;;4.53;1.00;;;11.90;99.90;;;;;;10101118;29;20091;-79
2022/11/17 07:46:19;;;;;;;3.58;0.93;;;12.00;99.90;;;;;;10120236;29;20049;-79
2022/11/17 07:51:21;;;;;;;4.22;0.93;;;12.10;99.90;;;;;;10145656;29;20052;-78
2022/11/17 07:56:23;;;;;;;3.38;0.77;;;12.10;99.90;;;;;;10137741;29;20048;-79
2022/11/17 08:01:26;;;;;;;4.10;1.08;;;12.20;99.90;;;;;;10137070;29;20053;-77
2022/11/17 08:06:28;;;;;;;4.10;0.90;;;12.20;99.90;;;;;;10136253;29;20048;-78
2022/11/17 08:11:30;;;;;;;15.77;6.70;;;12.20;99.90;;;;;;10136846;29;20079;-79
2022/11/17 08:16:33;;;;;;;3.78;1.02;;;12.30;99.90;;;;;;10136049;29;20084;-78
2022/11/17 08:21:37;;;;;;;3.15;0.70;;;12.30;99.90;;;;;;10135723;29;20099;-76
2022/11/17 08:26:39;;;;;;;2.95;0.80;;;12.30;99.90;;;;;;10136406;29;20054;-77
2022/11/17 08:31:45;;;;;;;2.88;0.70;;;12.30;99.90;;;;;;10135581;29;20123;-78
2022/11/17 08:36:46;;;;;;;3.05;0.80;;;12.20;99.90;;;;;;10135802;29;20495;-77
2022/11/17 08:41:50;;;;;;;3.22;1.00;;;12.30;99.90;;;;;;10135230;29;20048;-79
2022/11/17 08:46:53;;;;;;;3.78;0.82;;;12.30;99.90;;;;;;10134969;29;20448;-79
2022/11/17 08:51:55;;;;;;;1.90;0.50;;;12.30;99.90;;;;;;10134890;29;20148;-79
2022/11/17 08:56:58;;;;;;;3.40;0.63;;;12.40;99.90;;;;;;10135639;29;20108;-78
2022/11/17 09:02:01;;;;;;;4.60;0.93;;;12.40;99.90;;;;;;10132562;29;20064;-79
2022/11/17 09:07:03;;;;;;;4.45;0.77;;;12.50;99.90;;;;;;10104706;29;20062;-77
2022/11/17 09:12:06;;;;;;;2.45;0.65;;;12.50;99.90;;;;;;10135112;29;20053;-79
2022/11/17 09:17:09;;;;;;;4.65;0.90;;;12.50;99.90;;;;;;10134304;29;20048;-77
2022/11/17 09:22:11;;;;;;;2.05;0.63;;;12.50;99.90;;;;;;10131121;29;20119;-77
2022/11/17 09:27:13;;;;;;;3.50;0.60;;;12.50;99.90;;;;;;10138829;29;20097;-77
2022/11/17 09:32:18;;;;;;;1.58;0.60;;;12.50;99.90;;;;;;10128610;29;20506;-78
2022/11/17 09:37:21;;;;;;;1.95;0.57;;;12.50;99.90;;;;;;10117375;29;20048;-81
2022/11/17 09:42:23;;;;;;;3.88;0.80;;;12.60;99.90;;;;;;10109086;29;20059;-78
2022/11/17 09:47:37;;;;;;;2.22;0.40;;;12.50;99.90;;;;;;10137229;29;20056;-80
2022/11/17 09:52:52;;;;;;;1.73;0.40;;;12.40;99.90;;;;;;10136139;29;20064;-80
2022/11/17 09:58:11;;;;;;;2.88;0.40;;;12.40;99.90;;;;;;10136462;29;20056;-78
2022/11/17 10:03:20;;;;;;;1.10;0.30;;;12.40;99.90;;;;;;10135905;29;20063;-78
2022/11/17 10:08:31;;;;;;;;;;;12.50;99.90;;;;;;10139856;29;20459;-81
2022/11/17 10:13:36;;;;;;;3.85;0.57;;;12.60;99.90;;;;;;10150987;29;19964;-79
2022/11/17 10:18:40;;;;;;;2.22;0.57;;;12.60;99.90;;;;;;10146692;29;20113;-78
2022/11/17 10:23:45;;;;;;;2.58;0.40;;;12.60;99.90;;;;;;10136389;29;20109;-78
2022/11/17 10:28:48;;;;;;;2.35;0.32;;;12.70;99.80;;;;;;10135124;29;20100;-77
2022/11/17 10:33:51;;;;;;;3.83;0.60;;;12.70;99.80;;;;;;10134474;29;20516;-79
2022/11/17 10:38:56;;;;;;;1.98;0.50;;;12.80;99.40;;;;;;10134047;29;20109;-77
2022/11/17 10:44:04;;;;;;;5.00;0.93;;;12.90;99.20;;;;;;10136165;29;20074;-80
2022/11/17 10:49:25;;;;;;;4.07;0.82;;;12.90;98.80;;;;;;10135183;29;20699;-79
2022/11/17 10:54:27;;;;;;;2.53;0.75;;;13.00;98.40;;;;;;10135491;29;20057;-78
2022/11/17 10:59:32;;;;;;;5.78;1.08;;;13.10;98.30;;;;;;10134134;29;20061;-78
2022/11/17 11:04:39;;;;;;;3.78;0.90;;;13.00;98.50;;;;;;10134609;29;20048;-79
2022/11/17 11:09:49;;;;;;;5.18;1.40;;;13.10;98.10;;;;;;10133378;29;20057;-80
2022/11/17 11:14:54;;;;;;;5.28;0.80;;;13.10;98.20;;;;;;10133310;29;20060;-77
2022/11/17 11:19:59;;;;;;;4.50;0.88;;;13.10;98.40;;;;;;10132990;29;20057;-77
2022/11/17 11:25:18;;;;;;;4.20;1.02;;;13.30;98.40;;;;;;10132823;29;20073;-78
2022/11/17 11:30:21;;;;;;;4.78;1.20;;;13.20;98.60;;;;;;10132403;29;20179;-78
2022/11/17 11:35:45;;;;;;;5.35;1.33;;;13.20;98.60;;;;;;10130642;29;20554;-77
2022/11/17 11:41:03;;;;;;;7.60;1.27;;;13.40;98.40;;;;;;10094913;29;20052;-77
2022/11/17 11:46:12;;;;;;;6.20;1.10;;;13.50;98.30;;;;;;10094371;29;20100;-81
2022/11/17 11:51:19;;;;;;;7.40;1.13;;;13.70;97.90;;;;;;10110132;29;20076;-76
2022/11/17 11:56:26;;;;;;;6.13;1.30;;;13.80;97.60;;;;;;10132986;29;20053;-78
2022/11/17 12:01:32;;;;;;;6.22;1.33;;;14.00;97.30;;;;;;10132656;29;20487;-81
2022/11/17 12:06:46;;;;;;;6.95;1.15;;;14.10;97.50;;;;;;10134470;29;20052;-78
2022/11/17 12:12:01;;;;;;;7.88;1.40;;;14.20;97.30;;;;;;10136809;29;20052;-78
2022/11/17 12:17:22;;;;;;;9.65;1.73;;;14.50;97.00;;;;;;10136746;29;20052;-76
2022/11/17 12:23:09;;;;;;;6.22;1.35;;;14.90;96.60;;;;;;10139010;29;20045;-79
2022/11/17 12:28:29;;;;;;;;;;;14.90;96.50;;;;;;10138590;29;20107;-77
2022/11/17 12:34:25;;;;;;;8.70;2.25;;;14.90;94.70;;;;;;10136006;29;19923;-77
2022/11/17 12:40:09;;;;;;;7.13;1.50;;;14.90;93.80;;;;;;10096793;29;20456;-79
2022/11/17 12:45:12;;;;;;;8.55;1.75;;;14.80;94.00;;;;;;10113541;29;20053;-78
2022/11/17 12:50:41;;;;;;;9.02;1.88;;;15.00;93.50;;;;;;10136000;29;20167;-78
2022/11/17 12:56:07;;;;;;;11.50;1.92;;;15.40;92.70;;;;;;10135196;29;20059;-79
2022/11/17 13:01:16;;;;;;;8.63;1.60;;;15.90;92.00;;;;;;10134856;29;20060;-78
2022/11/17 13:06:18;;;;;;;10.50;2.30;;;16.60;90.90;;;;;;10135077;29;20049;-77
2022/11/17 13:11:22;;;;;;;10.63;2.00;;;17.40;88.40;;;;;;10135505;29;20147;-78
2022/11/17 13:16:24;;;;;;;6.53;1.73;;;19.20;80.80;;;;;;10136817;29;20052;-78
2022/11/17 13:21:31;;;;;;;9.50;1.88;;;17.60;82.10;;;;;;10136861;29;20060;-77
2022/11/17 13:26:37;;;;;;;8.95;2.08;;;16.90;85.80;;;;;;10134621;29;20052;-78
2022/11/17 13:31:39;;;;;;;8.52;1.65;;;16.70;86.70;;;;;;10137996;29;20108;-79
2022/11/17 13:36:53;;;;;;;8.95;1.92;;;16.20;87.10;;;;;;10160279;29;20067;-79
2022/11/17 13:41:58;;;;;;;8.00;2.00;;;16.40;87.60;;;;;;10140017;29;20483;-79
2022/11/17 13:47:18;;;;;;;7.70;1.70;;;16.90;86.40;;;;;;10146686;29;20053;-79
2022/11/17 13:52:33;;;;;;;7.50;1.90;;;20.20;72.30;;;;;;10171986;29;20048;-78
2022/11/17 13:57:37;;;;;;;8.55;1.90;;;22.60;63.50;;;;;;10169542;29;20068;-75
2022/11/17 14:02:52;;;;;;;6.78;1.80;;;22.60;59.80;;;;;;10132944;29;20056;-79
2022/11/17 14:07:57;;;;;;;7.80;1.90;;;20.60;62.10;;;;;;10132213;29;20087;-79
2022/11/17 14:13:25;;;;;;;7.38;1.70;;;19.10;65.90;;;;;;10136801;29;20064;-78
2022/11/17 14:18:33;;;;;;;6.97;1.70;;;18.60;67.40;;;;;;10136284;29;20057;-78
2022/11/17 14:23:35;;;;;;;7.70;1.98;;;19.20;67.20;;;;;;10136636;29;20055;-78
2022/11/17 14:28:38;;;;;;;9.65;1.80;;;19.30;66.00;;;;;;10137135;29;20087;-77
2022/11/17 14:33:40;;;;;;;9.98;3.10;;;19.40;65.40;;;;;;10133992;29;20067;-78
2022/11/17 14:38:44;;;;;;;6.22;1.63;;;19.30;65.80;;;;;;10134981;29;20093;-77
2022/11/17 14:43:48;;;;;;;6.57;1.50;;;18.60;67.50;;;;;;10134544;29;20480;-78
2022/11/17 14:48:50;;;;;;;7.65;1.80;;;18.10;68.70;;;;;;10133914;29;20108;-77
2022/11/17 14:53:53;;;;;;;8.52;1.83;;;17.50;70.50;;;;;;10137448;29;20102;-77
2022/11/17 14:58:58;;;;;;;7.80;1.80;;;17.10;71.90;;;;;;10138076;29;20116;-77
2022/11/17 15:04:03;;;;;;;6.90;1.85;;;16.70;73.20;;;;;;10140328;29;20101;-79
2022/11/17 15:09:05;;;;;;;9.60;1.67;;;16.40;74.50;;;;;;10146249;29;20057;-76
2022/11/17 15:14:10;;;;;;;23.73;10.23;;;16.30;75.30;;;;;;10149308;29;20059;-78
2022/11/17 15:19:12;;;;;;;7.32;1.75;;;16.30;75.40;;;;;;10140655;29;20475;-79
2022/11/17 15:24:14;;;;;;;6.78;1.65;;;16.00;76.30;;;;;;10139897;29;20071;-77
2022/11/17 15:29:18;;;;;;;8.60;1.65;;;15.70;77.40;;;;;;10139885;29;20101;-77
2022/11/17 15:34:20;;;;;;;8.80;1.42;;;15.50;78.40;;;;;;10139708;29;20053;-76
2022/11/17 15:39:22;;;;;;;7.95;1.80;;;15.40;79.30;;;;;;10138206;29;20116;-78
2022/11/17 15:44:25;;;;;;;7.20;2.13;;;15.20;80.10;;;;;;10145517;29;20097;-77
2022/11/17 15:49:27;;;;;;;7.22;1.77;;;15.10;80.70;;;;;;10156789;29;20052;-77
2022/11/17 15:54:29;;;;;;;9.32;1.70;;;15.10;81.10;;;;;;10157107;29;20077;-77
2022/11/17 15:59:33;;;;;;;11.25;1.80;;;15.00;81.50;;;;;;10146141;29;20471;-75
2022/11/17 16:04:36;;;;;;;6.53;1.77;;;14.90;81.90;;;;;;10137288;29;20407;-78
2022/11/17 16:09:37;;;;;;;8.80;1.90;;;14.80;83.00;;;;;;10138753;29;20485;-79
2022/11/17 16:14:41;;;;;;;7.40;1.65;;;14.80;83.60;;;;;;10142389;29;20080;-77
2022/11/17 16:19:43;;;;;;;8.60;1.77;;;14.50;84.70;;;;;;10137850;29;20108;-78
2022/11/17 16:24:44;;;;;;;9.63;2.20;;;14.50;84.10;;;;;;10136423;29;20482;-77
2022/11/17 16:29:48;;;;;;;7.25;1.65;;;14.50;85.20;;;;;;10135930;29;20187;-80
2022/11/17 16:34:49;;;;;;;7.57;1.70;;;14.40;84.90;;;;;;10134598;29;20048;-79
2022/11/17 16:39:51;;;;;;;7.32;1.60;;;14.30;87.40;;;;;;10135566;29;20111;-80
2022/11/17 16:44:55;;;;;;;7.78;2.10;;;14.20;86.60;;;;;;10135346;29;20691;-78
2022/11/17 16:49:56;;;;;;;11.18;2.05;;;14.20;87.90;;;;;;10135019;29;20049;-79
2022/11/17 16:54:58;;;;;;;7.57;1.75;;;14.10;88.60;;;;;;10135040;29;20053;-77
2022/11/17 17:00:02;;;;;;;7.07;1.95;;;14.00;87.50;;;;;;10135072;29;20559;-77
2022/11/17 17:05:05;;;;;;;9.95;1.80;;;14.10;87.50;;;;;;10153757;29;20053;-79
2022/11/17 17:10:08;;;;;;;5.43;1.48;;;14.00;89.10;;;;;;10129504;29;20049;-80
2022/11/17 17:15:11;;;;;;;6.13;1.67;;;14.00;89.70;;;;;;10136843;29;20053;-78
2022/11/17 17:20:13;;;;;;;4.85;1.23;;;13.90;89.20;;;;;;10155397;29;20048;-80
2022/11/17 17:25:15;;;;;;;6.38;1.38;;;13.80;89.30;;;;;;10123149;29;20056;-80
2022/11/17 17:30:19;;;;;;;6.90;1.55;;;13.90;88.80;;;;;;10132507;29;20057;-77
2022/11/17 17:35:21;;;;;;;10.02;1.90;;;13.90;89.00;;;;;;10133932;29;20594;-79
2022/11/17 17:40:24;;;;;;;5.55;1.60;;;13.90;90.10;;;;;;10130354;29;20056;-79
2022/11/17 17:45:27;;;;;;;7.00;1.80;;;13.80;90.60;;;;;;10132931;29;20100;-78
2022/11/17 17:50:30;;;;;;;6.95;2.08;;;13.90;90.10;;;;;;10136306;29;20065;-78
2022/11/17 17:55:33;;;;;;;8.70;2.30;;;13.80;91.80;;;;;;10136290;29;20575;-79
2022/11/17 18:00:36;;;;;;;9.18;2.42;;;13.60;91.90;;;;;;10136189;29;20059;-79
2022/11/17 18:05:38;;;;;;;17.52;9.70;;;13.60;92.30;;;;;;10134495;29;20087;-78
2022/11/17 18:10:40;;;;;;;11.13;2.88;;;13.30;93.70;;;;;;10135704;29;20183;-79
2022/11/17 18:15:44;;;;;;;11.18;5.70;;;13.30;92.70;;;;;;10131394;29;20140;-81
2022/11/17 18:20:46;;;;;;;9.75;3.50;;;13.40;94.60;;;;;;10122499;29;20049;-78
2022/11/17 18:25:48;;;;;;;7.03;2.20;;;13.40;94.00;;;;;;10134492;29;20129;-78
2022/11/17 18:30:51;;;;;;;7.18;1.90;;;13.40;94.20;;;;;;10132956;29;20210;-81
2022/11/17 18:35:53;;;;;;;8.18;2.13;;;13.40;94.60;;;;;;10132470;29;20055;-79
2022/11/17 18:41:03;;;;;;;6.40;2.08;;;13.30;95.00;;;;;;10133312;29;20503;-79
2022/11/17 18:46:08;;;;;;;5.65;1.75;;;13.30;94.40;;;;;;10136668;29;20056;-78
2022/11/17 18:51:13;;;;;;;6.63;1.83;;;13.30;95.60;;;;;;10149499;29;20048;-80
2022/11/17 18:56:17;;;;;;;7.50;1.67;;;13.30;94.10;;;;;;10133559;29;20120;-76
2022/11/17 19:01:23;;;;;;;3.83;1.38;;;13.30;93.50;;;;;;10133118;29;20093;-79
2022/11/17 19:06:26;;;;;;;5.72;1.70;;;13.20;93.70;;;;;;10134823;29;20115;-78
2022/11/17 19:11:31;;;;;;;4.47;1.30;;;13.00;94.70;;;;;;10135157;29;20156;-75
2022/11/17 19:16:35;;;;;;;5.43;1.33;;;13.00;95.00;;;;;;10133109;29;20048;-80
2022/11/17 19:21:37;;;;;;;3.97;1.20;;;13.00;95.60;;;;;;10132566;29;20083;-80
2022/11/17 19:26:39;;;;;;;3.40;1.10;;;12.90;98.00;;;;;;10132238;29;20108;-77
2022/11/17 19:31:43;;;;;;;3.85;0.98;;;12.70;99.90;;;;;;10131719;29;20057;-78
2022/11/17 19:36:45;;;;;;;2.30;0.77;;;12.40;99.90;;;;;;10131621;29;20107;-78
2022/11/17 19:41:46;;;;;;;2.83;0.80;;;12.10;99.90;;;;;;10131867;29;20494;-77
2022/11/17 19:46:50;;;;;;;4.03;0.80;;;11.70;99.90;;;;;;10132262;29;20077;-79
2022/11/17 19:51:52;;;;;;;28.38;16.15;;;11.70;99.90;;;;;;10137040;29;20056;-77
2022/11/17 19:56:55;;;;;;;6.55;1.30;;;11.70;99.90;;;;;;10130296;29;20064;-77
2022/11/17 20:01:58;;;;;;;3.38;1.10;;;11.50;99.90;;;;;;10132118;29;20048;-80
2022/11/17 20:07:00;;;;;;;2.90;1.00;;;11.50;99.90;;;;;;10130084;29;20053;-80
2022/11/17 20:12:03;;;;;;;4.47;1.15;;;11.50;99.90;;;;;;10131947;29;20056;-80
2022/11/17 20:17:06;;;;;;;4.40;1.02;;;11.40;99.90;;;;;;10131439;29;20112;-78
2022/11/17 20:22:09;;;;;;;3.55;1.13;;;11.50;99.90;;;;;;10130150;29;20108;-78
2022/11/17 20:27:11;;;;;;;3.63;0.93;;;11.40;99.90;;;;;;10129584;29;20693;-77
2022/11/17 20:32:17;;;;;;;3.90;1.10;;;11.40;99.90;;;;;;10130282;29;20084;-78
2022/11/17 20:37:19;;;;;;;5.70;1.42;;;11.40;99.90;;;;;;10130046;29;20698;-77
2022/11/17 20:42:21;;;;;;;11.52;4.00;;;11.40;99.90;;;;;;10141847;29;20059;-78
2022/11/17 20:47:26;;;;;;;4.72;1.67;;;11.50;99.90;;;;;;10130318;29;20459;-80
2022/11/17 20:52:28;;;;;;;3.25;1.00;;;11.50;99.90;;;;;;10129564;29;20060;-78
2022/11/17 20:57:30;;;;;;;2.05;0.80;;;11.70;99.90;;;;;;10128314;29;20092;-76
2022/11/17 21:02:33;;;;;;;3.13;0.80;;;11.70;99.90;;;;;;10113005;29;20051;-81
2022/11/17 21:07:35;;;;;;;4.65;0.88;;;11.70;99.90;;;;;;10125156;29;20056;-78
2022/11/17 21:12:37;;;;;;;2.78;0.70;;;11.70;99.90;;;;;;10129159;29;20120;-79
2022/11/17 21:23:00;;;;;;;2.47;0.80;;;11.70;99.90;;;;;;10137446;29;20060;-79
2022/11/17 21:28:02;;;;;;;1.65;0.80;;;11.70;99.90;;;;;;10136675;29;20053;-79
2022/11/17 21:33:06;;;;;;;3.22;0.90;;;11.60;99.90;;;;;;10137553;29;20056;-77
2022/11/17 21:38:09;;;;;;;2.30;0.90;;;11.60;99.90;;;;;;10137248;29;20052;-78
2022/11/17 21:43:11;;;;;;;2.83;1.00;;;11.50;99.90;;;;;;10136612;29;20044;-80
2022/11/17 21:48:14;;;;;;;3.58;1.17;;;11.20;99.90;;;;;;10135676;29;20511;-78
2022/11/17 21:53:16;;;;;;;3.50;1.30;;;11.10;99.90;;;;;;10132817;29;20053;-77
2022/11/17 21:58:18;;;;;;;3.88;1.10;;;11.20;99.90;;;;;;10100652;29;20057;-78
2022/11/17 22:03:23;;;;;;;3.60;1.50;;;11.10;99.90;;;;;;10132354;29;20076;-77
2022/11/17 22:08:25;;;;;;;3.83;1.85;;;10.90;99.90;;;;;;10140361;29;20059;-76
2022/11/17 22:13:27;;;;;;;5.65;1.70;;;10.80;99.90;;;;;;10140639;29;20443;-78
2022/11/17 22:18:30;;;;;;;4.18;1.80;;;10.90;99.90;;;;;;10139805;29;20513;-78
2022/11/17 22:23:32;;;;;;;5.50;1.95;;;10.80;99.90;;;;;;10140424;29;20053;-78
2022/11/17 22:28:35;;;;;;;4.53;1.80;;;10.90;99.90;;;;;;10139984;29;20057;-77
2022/11/17 22:33:38;;;;;;;5.25;1.60;;;10.80;99.90;;;;;;10138945;29;20525;-80
2022/11/17 22:38:41;;;;;;;4.88;1.50;;;10.80;99.90;;;;;;10139782;29;20059;-77
2022/11/17 22:43:42;;;;;;;5.10;1.52;;;11.00;99.90;;;;;;10139125;29;20059;-79
2022/11/17 22:48:46;;;;;;;3.03;1.50;;;11.00;99.90;;;;;;10139599;29;20064;-77
2022/11/17 22:53:48;;;;;;;4.03;1.50;;;11.00;99.90;;;;;;10138902;29;20112;-78
2022/11/17 22:58:50;;;;;;;3.25;1.10;;;10.90;99.90;;;;;;10139181;29;20052;-79
